Time;durP1;ratioP1;P1;durP2;ratioP2;P2;SDS_P1;SDS_P2;PMS_P1;PMS_P2;Temp;Humidity;BMP_temperature;BMP_pressure;BME280_temperature;BME280_humidity;BME280_pressure;Samples;Min_cycle;Max_cycle;Signal;HPM_P1;HPM_P2
2022/10/12 00:01:24;;;;;;;19.10;16.97;;;;;;;14.06;100.00;96928.06;5026555;28;102879;-60
2022/10/12 00:03:51;;;;;;;18.87;16.97;;;;;;;14.07;100.00;96930.44;5027692;28;102366;-60
2022/10/12 00:06:38;;;;;;;21.23;17.93;;;;;;;14.07;100.00;96935.00;5027177;28;103648;-60
2022/10/12 00:09:05;;;;;;;18.13;16.23;;;;;;;14.07;100.00;96929.66;5026806;28;105359;-60
2022/10/12 00:11:32;;;;;;;16.97;15.17;;;;;;;14.04;100.00;96930.16;5027424;28;102068;-60
2022/10/12 00:14:00;;;;;;;20.23;17.90;;;;;;;14.05;100.00;96929.09;5030168;28;105537;-60
2022/10/12 00:16:33;;;;;;;20.73;17.93;;;;;;;14.06;100.00;96934.19;5027375;28;101895;-60
2022/10/12 00:19:01;;;;;;;21.40;18.80;;;;;;;14.08;100.00;96931.25;5007167;28;104939;-60
2022/10/12 00:22:07;;;;;;;19.87;17.87;;;;;;;14.10;100.00;96937.16;5014070;28;104220;-60
2022/10/12 00:24:34;;;;;;;19.67;17.63;;;;;;;14.11;100.00;96936.91;5027408;28;101825;-60
2022/10/12 00:27:05;;;;;;;22.43;19.73;;;;;;;14.12;100.00;96938.50;5026899;28;103489;-60
2022/10/12 00:29:32;;;;;;;19.57;17.47;;;;;;;14.01;100.00;96936.84;5026453;28;105295;-60
2022/10/12 00:32:00;;;;;;;19.43;17.43;;;;;;;14.03;100.00;96933.91;5028669;27;101793;-60
2022/10/12 00:34:27;;;;;;;21.37;18.83;;;;;;;14.00;100.00;96929.88;5030208;28;104746;-60
2022/10/12 00:36:57;;;;;;;22.77;20.57;;;;;;;13.93;100.00;96933.84;5033536;28;105598;-60
2022/10/12 00:39:26;;;;;;;23.37;18.60;;;;;;;13.88;100.00;96931.13;5030642;28;105006;-60
2022/10/12 00:41:52;;;;;;;24.10;20.77;;;;;;;13.84;100.00;96930.06;5029654;28;105347;-60
2022/10/12 00:44:38;;;;;;;20.23;18.10;;;;;;;13.80;100.00;96931.63;5030545;28;101997;-60
2022/10/12 00:50:42;;;;;;;24.03;19.53;;;;;;;13.87;100.00;96930.34;5031514;27;101988;-60
2022/10/12 00:53:14;;;;;;;20.43;18.27;;;;;;;13.85;100.00;96926.31;5029409;28;101912;-60
2022/10/12 00:55:46;;;;;;;22.17;19.77;;;;;;;13.86;100.00;96933.25;5010058;28;103967;-60
2022/10/12 00:58:14;;;;;;;25.57;21.13;;;;;;;13.88;100.00;96928.47;5028807;28;105508;-60
2022/10/12 01:00:43;;;;;;;23.63;18.97;;;;;;;13.85;100.00;96920.97;5035144;28;101842;-60
2022/10/12 01:03:14;;;;;;;22.10;19.47;;;;;;;13.81;100.00;96935.91;5029159;28;104267;-60
2022/10/12 01:05:42;;;;;;;36.17;23.37;;;;;;;13.78;100.00;96936.41;5030015;28;102155;-60
2022/10/12 01:08:08;;;;;;;25.60;20.87;;;;;;;13.83;100.00;96925.75;5030035;28;105233;-60
2022/10/12 01:10:36;;;;;;;25.93;19.67;;;;;;;13.83;100.00;96929.25;5029493;28;105336;-60
2022/10/12 01:13:05;;;;;;;25.53;21.23;;;;;;;13.82;100.00;96930.31;5029901;28;101930;-60
2022/10/12 01:15:35;;;;;;;25.50;22.13;;;;;;;13.73;100.00;96926.50;5029816;28;105598;-60
2022/10/12 01:18:09;;;;;;;23.40;20.27;;;;;;;13.79;100.00;96930.81;5029189;28;105405;-60
2022/10/12 01:21:09;;;;;;;21.93;19.53;;;;;;;13.80;100.00;96923.59;5029652;28;102018;-60
2022/10/12 01:24:05;;;;;;;21.20;18.77;;;;;;;13.87;100.00;96929.53;5032782;28;103771;-60
2022/10/12 01:27:01;;;;;;;23.17;19.97;;;;;;;13.88;100.00;96933.81;5010204;28;101858;-60
2022/10/12 01:29:45;;;;;;;24.53;20.40;;;;;;;13.82;100.00;96929.50;5005196;28;104800;-60
2022/10/12 01:32:21;;;;;;;36.60;25.00;;;;;;;13.74;100.00;96935.31;5029309;28;105210;-60
2022/10/12 01:34:57;;;;;;;24.90;21.37;;;;;;;13.77;100.00;96935.63;5031023;28;101784;-60
2022/10/12 01:37:43;;;;;;;25.73;21.80;;;;;;;13.66;100.00;96930.44;5030953;28;102701;-60
2022/10/12 01:40:16;;;;;;;29.53;22.60;;;;;;;13.62;100.00;96942.72;5030584;28;102739;-60
2022/10/12 01:42:44;;;;;;;33.53;23.83;;;;;;;13.54;100.00;96944.00;5030980;28;102371;-60
2022/10/12 01:45:13;;;;;;;27.70;24.27;;;;;;;13.65;100.00;96931.50;5030411;28;102313;-60
2022/10/12 01:47:47;;;;;;;28.63;23.10;;;;;;;13.66;100.00;96941.94;5033216;28;102679;-60
2022/10/12 01:50:30;;;;;;;30.13;24.53;;;;;;;13.66;100.00;96938.47;5029182;28;103709;-60
2022/10/12 01:53:07;;;;;;;29.23;24.30;;;;;;;13.59;100.00;96945.91;5029881;27;103144;-60
2022/10/12 01:55:40;;;;;;;26.83;23.40;;;;;;;13.60;100.00;96939.47;5029332;28;101813;-60
2022/10/12 01:58:23;;;;;;;29.87;24.83;;;;;;;13.57;100.00;96940.00;5030695;28;102388;-60
2022/10/12 02:00:59;;;;;;;31.43;23.83;;;;;;;13.57;100.00;96934.66;5029863;27;103523;-60
2022/10/12 02:03:37;;;;;;;33.93;25.57;;;;;;;13.51;100.00;96933.81;5030912;28;101673;-60
2022/10/12 02:06:12;;;;;;;30.53;23.20;;;;;;;13.50;100.00;96934.06;5029012;28;103974;-60
2022/10/12 02:08:46;;;;;;;34.33;25.97;;;;;;;13.47;100.00;96937.25;5033778;27;102584;-60
2022/10/12 02:11:16;;;;;;;30.90;25.30;;;;;;;13.44;100.00;96935.91;5029066;28;105636;-60
2022/10/12 02:13:46;;;;;;;37.87;26.23;;;;;;;13.37;100.00;96932.63;5028344;28;105925;-60
2022/10/12 02:16:18;;;;;;;34.57;26.43;;;;;;;13.39;100.00;96938.53;5028874;28;102177;-60
2022/10/12 02:18:50;;;;;;;35.63;27.17;;;;;;;13.35;100.00;96939.28;5029736;28;102853;-60
2022/10/12 02:21:30;;;;;;;33.10;26.10;;;;;;;13.30;100.00;96944.59;5029813;27;102691;-60
2022/10/12 02:24:00;;;;;;;38.83;26.97;;;;;;;13.31;100.00;96943.53;5030432;27;101709;-60
2022/10/12 02:27:13;;;;;;;37.47;27.33;;;;;;;13.24;100.00;96940.25;5030115;28;102507;-60
2022/10/12 02:29:45;;;;;;;36.43;28.23;;;;;;;13.25;100.00;96937.31;5009216;28;105089;-60
2022/10/12 02:32:20;;;;;;;38.67;27.60;;;;;;;13.22;100.00;96934.34;5020166;28;101951;-60
2022/10/12 02:34:54;;;;;;;40.60;28.47;;;;;;;13.22;100.00;96931.69;5029635;28;104649;-60
2022/10/12 02:37:31;;;;;;;38.37;28.80;;;;;;;13.17;100.00;96934.31;5029952;27;101745;-60
2022/10/12 02:40:04;;;;;;;43.30;30.33;;;;;;;13.12;100.00;96936.91;5030430;28;102854;-60
2022/10/12 02:42:37;;;;;;;43.57;30.50;;;;;;;13.06;100.00;96928.06;5029685;28;102681;-60
2022/10/12 02:45:07;;;;;;;39.93;29.53;;;;;;;13.03;100.00;96935.78;5030017;28;101754;-60
2022/10/12 02:48:26;;;;;;;44.23;30.10;;;;;;;13.08;100.00;96931.28;5028208;28;103577;-60
2022/10/12 02:50:58;;;;;;;44.37;30.63;;;;;;;13.09;100.00;96926.75;5027752;28;105452;-60
2022/10/12 02:53:29;;;;;;;46.73;30.37;;;;;;;13.10;100.00;96929.19;5027780;28;101984;-60
2022/10/12 02:56:03;;;;;;;45.37;30.77;;;;;;;13.07;100.00;96921.66;5029937;27;105334;-60
2022/10/12 02:58:30;;;;;;;48.33;32.20;;;;;;;13.08;100.00;96925.16;5030065;27;101671;-60
2022/10/12 03:00:57;;;;;;;46.50;32.83;;;;;;;13.13;100.00;96922.53;5029622;28;102350;-60
2022/10/12 03:03:24;;;;;;;48.87;33.17;;;;;;;13.14;100.00;96921.47;5029219;28;102762;-60
2022/10/12 03:05:58;;;;;;;51.40;32.50;;;;;;;13.18;100.00;96919.88;5029317;28;101792;-60
2022/10/12 03:08:24;;;;;;;53.83;33.00;;;;;;;13.15;100.00;96928.41;5029559;28;102415;-60
2022/10/12 03:10:51;;;;;;;48.37;31.70;;;;;;;13.16;100.00;96919.34;5029073;28;102057;-60
2022/10/12 03:13:19;;;;;;;49.83;32.53;;;;;;;13.11;100.00;96928.13;5029076;28;101977;-60
2022/10/12 03:15:47;;;;;;;55.23;32.87;;;;;;;13.06;100.00;96919.25;5029243;28;102387;-60
2022/10/12 03:18:14;;;;;;;55.07;33.70;;;;;;;13.03;100.00;96927.78;5014414;28;105807;-60
2022/10/12 03:20:48;;;;;;;52.77;32.80;;;;;;;13.04;100.00;96932.84;5029198;28;102847;-60
2022/10/12 03:23:16;;;;;;;54.57;33.73;;;;;;;13.00;100.00;96925.59;5028038;28;102643;-60
2022/10/12 03:26:13;;;;;;;49.07;33.13;;;;;;;13.01;100.00;96932.53;5027914;28;101982;-60
2022/10/12 03:28:40;;;;;;;52.17;34.37;;;;;;;13.04;100.00;96929.38;5027967;28;105602;-60
2022/10/12 03:31:08;;;;;;;56.83;34.63;;;;;;;12.99;100.00;96937.34;5027128;28;105238;-60
2022/10/12 03:33:35;;;;;;;56.77;35.53;;;;;;;12.95;100.00;96931.66;5027996;28;101963;-60
2022/10/12 03:36:10;;;;;;;58.33;35.40;;;;;;;12.92;100.00;96939.38;5027883;28;105622;-60
2022/10/12 03:38:38;;;;;;;59.97;34.30;;;;;;;12.94;100.00;96934.59;5027299;28;103821;-60
2022/10/12 03:41:06;;;;;;;64.47;37.30;;;;;;;13.00;100.00;96934.41;5031118;28;101984;-60
2022/10/12 03:43:33;;;;;;;57.57;35.97;;;;;;;13.02;100.00;96939.53;5027285;28;105767;-60
2022/10/12 03:46:00;;;;;;;61.03;37.00;;;;;;;12.96;100.00;96935.16;5027663;28;101926;-60
2022/10/12 03:48:27;;;;;;;61.73;39.27;;;;;;;13.02;100.00;96928.84;5029093;28;102572;-60
2022/10/12 03:51:08;;;;;;;57.13;38.07;;;;;;;13.03;100.00;96933.13;5028368;28;103165;-60
2022/10/12 03:53:35;;;;;;;60.63;36.87;;;;;;;13.00;100.00;96934.41;5026950;28;101870;-60
2022/10/12 03:56:22;;;;;;;61.60;37.50;;;;;;;13.07;100.00;96939.53;5027753;28;105798;-60
2022/10/12 03:58:49;;;;;;;69.40;39.13;;;;;;;13.07;100.00;96945.69;5027001;28;105593;-60
2022/10/12 04:01:16;;;;;;;59.10;37.03;;;;;;;13.12;100.00;96942.25;5027554;28;101945;-60
2022/10/12 04:03:43;;;;;;;48.03;35.50;;;;;;;13.16;100.00;96938.03;5030335;28;105707;-60
2022/10/12 04:06:10;;;;;;;56.50;36.20;;;;;;;13.15;100.00;96934.56;5029180;28;101815;-60
2022/10/12 04:08:37;;;;;;;61.53;36.83;;;;;;;13.18;100.00;96930.56;5030966;28;104863;-60
2022/10/12 04:11:04;;;;;;;58.77;36.13;;;;;;;13.16;100.00;96927.34;5030145;28;105245;-60
2022/10/12 04:13:33;;;;;;;55.93;35.17;;;;;;;13.21;100.00;96935.41;5030748;28;102246;-60
2022/10/12 04:16:05;;;;;;;50.73;32.93;;;;;;;13.19;100.00;96926.88;5031126;28;103720;-60
2022/10/12 04:18:32;;;;;;;55.30;35.67;;;;;;;13.25;100.00;96926.63;5030337;28;105522;-60
2022/10/12 04:21:49;;;;;;;51.00;34.27;;;;;;;13.29;100.00;96932.28;5030735;28;101954;-60
2022/10/12 04:24:17;;;;;;;48.07;31.40;;;;;;;13.30;100.00;96931.22;5003610;28;105386;-60
2022/10/12 04:26:53;;;;;;;43.33;29.13;;;;;;;13.30;100.00;96933.91;5030688;28;101878;-60
2022/10/12 04:29:22;;;;;;;55.63;35.03;;;;;;;13.32;100.00;96939.78;5030607;28;105088;-60
2022/10/12 04:31:49;;;;;;;50.77;32.93;;;;;;;13.34;100.00;96934.97;5030053;28;105660;-60
2022/10/12 04:34:16;;;;;;;55.90;36.20;;;;;;;13.35;100.00;96936.63;5031965;28;101933;-60
2022/10/12 04:37:06;;;;;;;53.03;34.73;;;;;;;13.38;100.00;96936.91;5030655;28;105191;-60
2022/10/12 04:39:33;;;;;;;57.50;37.13;;;;;;;13.39;100.00;96938.53;5029827;28;105443;-60
2022/10/12 04:42:01;;;;;;;60.57;37.03;;;;;;;13.40;100.00;96939.34;5030098;28;101926;-60
2022/10/12 04:44:30;;;;;;;57.40;36.60;;;;;;;13.39;100.00;96937.69;5031883;28;102303;-60
2022/10/12 04:47:11;;;;;;;49.37;31.40;;;;;;;13.40;100.00;96936.66;5033503;28;105304;-60
2022/10/12 04:49:38;;;;;;;48.03;34.30;;;;;;;13.36;100.00;96943.56;5063648;27;105216;-60
2022/10/12 04:52:06;;;;;;;52.73;34.67;;;;;;;13.39;100.00;96937.69;5029442;28;105052;-60
2022/10/12 04:54:34;;;;;;;50.20;32.30;;;;;;;13.42;100.00;96939.88;5029666;28;101861;-60
2022/10/12 04:57:27;;;;;;;52.17;35.63;;;;;;;13.45;100.00;96942.03;5030275;28;105496;-60
2022/10/12 04:59:56;;;;;;;98.73;59.13;;;;;;;13.40;100.00;96944.69;5029862;28;104222;-60
2022/10/12 05:02:23;;;;;;;85.60;49.93;;;;;;;13.33;100.00;96944.88;5030155;28;101932;-60
2022/10/12 05:04:50;;;;;;;67.00;42.57;;;;;;;13.33;100.00;96941.38;5030103;28;104730;-60
2022/10/12 05:07:19;;;;;;;66.83;38.67;;;;;;;13.29;100.00;96942.94;5029436;28;105118;-60
2022/10/12 05:09:46;;;;;;;59.33;36.10;;;;;;;13.27;100.00;96950.41;5033393;28;101931;-60
2022/10/12 05:12:13;;;;;;;56.93;36.03;;;;;;;13.19;100.00;96945.56;5029361;28;105438;-60
2022/10/12 05:14:39;;;;;;;57.97;37.13;;;;;;;13.18;100.00;96954.59;5029845;28;101981;-60
2022/10/12 05:17:23;;;;;;;62.80;38.47;;;;;;;13.09;100.00;96951.59;5029885;28;103645;-59
2022/10/12 05:19:50;;;;;;;58.10;37.27;;;;;;;13.10;100.00;96958.56;5028439;28;105046;-60
2022/10/12 05:22:26;;;;;;;56.27;35.43;;;;;;;13.11;100.00;96956.69;5029661;28;101928;-60
2022/10/12 05:24:54;;;;;;;55.60;34.83;;;;;;;13.08;100.00;96954.53;5029473;28;106655;-60
2022/10/12 05:27:24;;;;;;;55.37;36.00;;;;;;;13.10;100.00;96947.06;5029104;28;105027;-60
2022/10/12 05:29:51;;;;;;;54.27;35.50;;;;;;;13.10;100.00;96955.06;5031082;27;101894;-60
2022/10/12 05:32:18;;;;;;;62.40;38.40;;;;;;;13.12;100.00;96959.09;5033544;28;104376;-60
2022/10/12 05:34:47;;;;;;;67.87;36.80;;;;;;;13.12;100.00;96953.75;5029555;28;102022;-60
2022/10/12 05:37:30;;;;;;;61.50;37.67;;;;;;;13.17;100.00;96951.16;5029525;28;105014;-60
2022/10/12 05:39:57;;;;;;;57.10;35.83;;;;;;;13.16;100.00;96959.41;5028929;28;105819;-60
2022/10/12 05:42:25;;;;;;;63.70;39.07;;;;;;;13.10;100.00;96955.06;5029245;28;101961;-60
2022/10/12 05:44:52;;;;;;;64.03;39.93;;;;;;;13.07;100.00;96966.25;5028749;28;107114;-60
2022/10/12 05:47:49;;;;;;;64.40;39.63;;;;;;;13.07;100.00;96958.22;5028390;28;105973;-59
2022/10/12 05:50:18;;;;;;;59.77;37.73;;;;;;;13.03;100.00;96957.94;5030526;28;102010;-59
2022/10/12 05:52:45;;;;;;;60.33;38.43;;;;;;;13.10;100.00;96965.75;5029004;28;105523;-60
2022/10/12 05:55:12;;;;;;;60.93;38.07;;;;;;;13.06;100.00;96969.97;5031828;28;105544;-61
2022/10/12 05:57:40;;;;;;;58.07;36.03;;;;;;;13.03;100.00;96968.63;5029423;28;105109;-61
2022/10/12 06:00:09;;;;;;;57.93;37.37;;;;;;;13.05;100.00;96974.53;5028156;28;105816;-60
2022/10/12 06:02:39;;;;;;;63.73;38.33;;;;;;;13.09;100.00;96974.81;5030827;27;102048;-61
2022/10/12 06:05:14;;;;;;;66.80;37.87;;;;;;;13.08;100.00;96976.69;5030690;27;102261;-61
2022/10/12 06:07:44;;;;;;;68.90;39.67;;;;;;;13.09;100.00;96980.16;5028521;28;105970;-61
2022/10/12 06:10:11;;;;;;;60.67;37.13;;;;;;;13.16;100.00;96983.44;5029097;28;101988;-61
2022/10/12 06:12:39;;;;;;;67.43;40.33;;;;;;;13.10;100.00;96979.91;5029310;28;105153;-61
2022/10/12 06:15:07;;;;;;;66.60;40.47;;;;;;;13.07;100.00;96979.59;5028571;28;105980;-61
2022/10/12 06:17:52;;;;;;;64.77;39.87;;;;;;;13.14;100.00;96985.56;5032407;28;101996;-61
2022/10/12 06:20:24;;;;;;;68.70;40.33;;;;;;;13.19;100.00;96977.59;5028441;28;103122;-61
2022/10/12 06:22:53;;;;;;;65.50;38.77;;;;;;;13.17;100.00;96974.34;5028679;28;102112;-60
2022/10/12 06:25:19;;;;;;;68.10;38.90;;;;;;;13.20;100.00;96981.88;5028689;28;104969;-60
2022/10/12 06:28:38;;;;;;;64.40;37.53;;;;;;;13.26;100.00;96986.22;5027916;28;105526;-60
2022/10/12 06:31:05;;;;;;;59.13;36.30;;;;;;;13.32;100.00;96985.19;5028448;27;102215;-60
2022/10/12 06:33:32;;;;;;;58.53;35.63;;;;;;;13.36;100.00;96978.31;5030095;28;102364;-60
2022/10/12 06:36:06;;;;;;;54.87;35.30;;;;;;;13.39;100.00;96980.44;5029523;28;102660;-60
2022/10/12 06:38:35;;;;;;;60.47;38.07;;;;;;;13.42;100.00;96985.31;5033756;28;101697;-60
2022/10/12 06:41:01;;;;;;;58.00;37.30;;;;;;;13.45;100.00;96984.78;5028125;28;105892;-60
2022/10/12 06:43:29;;;;;;;58.47;36.53;;;;;;;13.41;100.00;96984.47;5028647;28;101945;-60
2022/10/12 06:46:52;;;;;;;58.13;36.40;;;;;;;13.33;100.00;96987.63;5029895;28;104250;-60
2022/10/12 06:49:19;;;;;;;53.53;34.77;;;;;;;13.39;100.00;96985.78;5027903;28;106045;-60
2022/10/12 06:51:50;;;;;;;58.53;35.60;;;;;;;13.36;100.00;96986.31;5028133;28;102272;-60
2022/10/12 06:54:19;;;;;;;56.37;34.10;;;;;;;13.41;100.00;96994.38;5028172;28;104809;-60
2022/10/12 06:57:01;;;;;;;57.70;36.37;;;;;;;13.43;100.00;96992.25;5027849;28;105209;-60
2022/10/12 06:59:27;;;;;;;59.13;37.83;;;;;;;13.41;100.00;96991.72;5027997;28;101852;-60
2022/10/12 07:01:54;;;;;;;64.33;37.67;;;;;;;13.42;100.00;96988.75;5031093;28;105471;-60
2022/10/12 07:04:21;;;;;;;56.43;36.03;;;;;;;13.39;100.00;96991.13;5028215;28;102207;-60
2022/10/12 07:07:00;;;;;;;57.13;35.37;;;;;;;13.48;100.00;96990.44;5027993;28;104992;-60
2022/10/12 07:09:29;;;;;;;54.50;35.40;;;;;;;13.58;100.00;96992.38;5027554;28;105612;-60
2022/10/12 07:11:57;;;;;;;50.97;33.20;;;;;;;13.62;100.00;96991.63;5027991;28;101924;-60
2022/10/12 07:14:24;;;;;;;55.70;34.77;;;;;;;13.71;100.00;96992.78;5028003;28;105054;-60
2022/10/12 07:17:16;;;;;;;53.80;34.67;;;;;;;13.75;100.00;96987.72;5027385;28;105318;-60
2022/10/12 07:19:43;;;;;;;51.03;32.80;;;;;;;13.81;100.00;96992.03;5027704;28;101973;-60
2022/10/12 07:22:19;;;;;;;48.93;33.57;;;;;;;13.87;100.00;96991.00;5027874;28;105424;-60
2022/10/12 07:24:50;;;;;;;47.70;31.83;;;;;;;13.86;100.00;96992.09;5031019;27;105730;-60
2022/10/12 07:27:22;;;;;;;51.63;33.23;;;;;;;13.85;100.00;96993.94;5029373;28;101747;-60
2022/10/12 07:29:49;;;;;;;49.17;32.27;;;;;;;13.82;100.00;96996.31;5027231;28;105385;-59
2022/10/12 07:32:17;;;;;;;47.47;31.67;;;;;;;13.84;100.00;96991.53;5010835;28;101921;-59
2022/10/12 07:34:44;;;;;;;45.53;31.97;;;;;;;13.84;100.00;96988.88;5027574;28;104792;-60
2022/10/12 07:37:22;;;;;;;46.37;31.00;;;;;;;13.90;100.00;96991.31;5027187;28;105467;-59
2022/10/12 07:39:55;;;;;;;44.30;30.87;;;;;;;14.03;100.00;96988.22;5027765;28;102086;-59
2022/10/12 07:42:22;;;;;;;45.37;30.73;;;;;;;14.17;100.00;96989.34;5029811;27;104912;-60
2022/10/12 07:44:49;;;;;;;44.93;29.73;;;;;;;14.34;100.00;96983.88;5031235;28;104838;-59
2022/10/12 07:47:38;;;;;;;45.20;30.57;;;;;;;14.16;100.00;96986.94;5034737;28;101907;-60
2022/10/12 07:50:36;;;;;;;42.17;28.30;;;;;;;14.11;100.00;96998.41;5010396;28;105277;-60
2022/10/12 07:53:03;;;;;;;41.00;29.00;;;;;;;14.07;100.00;97009.91;5025854;28;101890;-60
2022/10/12 07:55:32;;;;;;;47.23;29.67;;;;;;;14.00;100.00;97009.31;5030781;28;103939;-60
2022/10/12 07:58:06;;;;;;;41.40;28.30;;;;;;;14.05;100.00;97012.00;5032011;28;103093;-60
2022/10/12 08:00:33;;;;;;;37.23;27.30;;;;;;;14.13;100.00;97012.34;5031059;28;102050;-60
2022/10/12 08:03:01;;;;;;;43.63;28.93;;;;;;;14.14;100.00;97010.47;5030884;28;105374;-60
2022/10/12 08:05:27;;;;;;;41.17;28.43;;;;;;;14.21;100.00;97006.53;5030406;28;105110;-60
2022/10/12 08:07:55;;;;;;;37.63;26.53;;;;;;;14.20;100.00;97009.47;5030633;28;101999;-60
2022/10/12 08:10:22;;;;;;;37.63;27.00;;;;;;;14.09;100.00;97010.44;5033705;28;104749;-60
2022/10/12 08:12:51;;;;;;;38.47;27.03;;;;;;;13.98;100.00;97016.78;5030994;28;101957;-61
2022/10/12 08:15:18;;;;;;;39.43;26.60;;;;;;;14.05;100.00;97012.00;5032120;28;102358;-60
2022/10/12 08:17:55;;;;;;;36.17;25.47;;;;;;;14.00;100.00;97010.09;5030307;28;105072;-61
2022/10/12 08:20:22;;;;;;;34.90;26.23;;;;;;;14.09;100.00;97019.28;5031995;28;102054;-61
2022/10/12 08:22:50;;;;;;;37.50;26.50;;;;;;;13.99;100.00;97013.03;5030611;28;104832;-61
2022/10/12 08:25:16;;;;;;;38.10;26.07;;;;;;;14.08;100.00;97015.00;5030087;28;105777;-60
2022/10/12 08:27:52;;;;;;;36.97;25.40;;;;;;;14.18;100.00;97006.22;5030712;28;101976;-60
2022/10/12 08:30:21;;;;;;;38.57;26.07;;;;;;;14.17;100.00;97012.63;5030700;28;105430;-60
2022/10/12 08:32:48;;;;;;;36.27;26.03;;;;;;;14.17;100.00;97010.75;5033161;27;102009;-60
2022/10/12 08:35:15;;;;;;;35.90;25.23;;;;;;;14.18;100.00;97014.25;5030487;28;105178;-60
2022/10/12 08:37:48;;;;;;;37.13;25.17;;;;;;;14.22;100.00;97012.72;5029888;28;106010;-60
2022/10/12 08:40:19;;;;;;;32.73;24.53;;;;;;;14.10;100.00;97020.88;5029421;28;101966;-61
2022/10/12 08:42:53;;;;;;;31.23;23.73;;;;;;;14.28;100.00;97022.38;5030293;28;105451;-61
2022/10/12 08:45:38;;;;;;;36.30;23.83;;;;;;;14.35;100.00;97015.75;5029603;28;105343;-61
2022/10/12 08:48:12;;;;;;;30.13;21.57;;;;;;;14.45;100.00;97012.31;5030044;28;101770;-60
2022/10/12 08:51:07;;;;;;;28.40;20.93;;;;;;;14.51;100.00;97016.63;5029545;28;106219;-61
2022/10/12 08:53:45;;;;;;;25.53;19.70;;;;;;;14.55;100.00;97001.66;5032222;27;105439;-60
2022/10/12 08:56:28;;;;;;;25.03;18.53;;;;;;;14.67;100.00;97010.28;5030030;28;104911;-61
2022/10/12 08:58:55;;;;;;;25.47;18.30;;;;;;;14.75;100.00;97012.44;5029560;28;105863;-60
2022/10/12 09:01:29;;;;;;;26.50;19.30;;;;;;;14.83;100.00;97003.94;5029874;28;102249;-60
2022/10/12 09:04:14;;;;;;;27.00;19.23;;;;;;;14.74;100.00;97011.66;5029901;28;105221;-60
2022/10/12 09:07:27;;;;;;;27.87;19.43;;;;;;;14.79;100.00;97005.50;5009399;28;105662;-60
2022/10/12 09:10:10;;;;;;;21.40;17.17;;;;;;;14.72;100.00;97012.97;5013296;28;102006;-60
2022/10/12 09:12:49;;;;;;;20.53;16.40;;;;;;;14.91;100.00;97008.78;5029749;28;106261;-60
2022/10/12 09:15:20;;;;;;;24.97;17.53;;;;;;;15.02;100.00;97013.09;5029476;28;105927;-61
2022/10/12 09:18:16;;;;;;;25.67;17.90;;;;;;;14.89;100.00;97002.88;5033365;28;101857;-60
2022/10/12 09:20:52;;;;;;;25.00;19.63;;;;;;;14.65;100.00;97015.06;5029285;28;105970;-60
2022/10/12 09:23:24;;;;;;;28.87;19.50;;;;;;;14.60;100.00;97015.88;5029903;28;101729;-60
2022/10/12 09:26:16;;;;;;;26.23;19.07;;;;;;;14.60;100.00;97012.41;5029851;28;105000;-60
2022/10/12 09:28:45;;;;;;;26.80;19.07;;;;;;;14.67;100.00;97018.31;5029048;28;105638;-59
2022/10/12 09:31:34;;;;;;;24.70;18.23;;;;;;;14.79;100.00;97009.00;5029537;28;101875;-60
2022/10/12 09:34:05;;;;;;;23.03;15.87;;;;;;;14.83;100.00;97010.06;5029698;28;105300;-60
2022/10/12 09:39:55;;;;;;;22.07;15.40;;;;;;;14.98;100.00;97012.03;5031007;27;101744;-60
2022/10/12 09:42:22;;;;;;;24.00;17.03;;;;;;;14.91;100.00;97006.09;5032591;28;105524;-60
2022/10/12 09:44:52;;;;;;;23.87;17.67;;;;;;;14.98;100.00;97009.34;5029425;28;101873;-60
2022/10/12 09:47:30;;;;;;;24.07;17.27;;;;;;;14.95;100.00;97001.81;5030630;28;102354;-61
2022/10/12 09:50:00;;;;;;;22.73;16.80;;;;;;;14.91;100.00;97008.78;5028611;28;103840;-60
2022/10/12 09:52:30;;;;;;;24.70;17.60;;;;;;;14.99;100.00;97002.91;5029328;28;101983;-59
2022/10/12 09:55:00;;;;;;;20.73;16.50;;;;;;;14.86;100.00;96998.84;5030012;28;103126;-69
2022/10/12 09:57:52;;;;;;;20.40;15.90;;;;;;;14.92;100.00;97005.84;5028701;28;104343;-60
2022/10/12 10:00:25;;;;;;;22.57;15.93;;;;;;;14.75;100.00;97007.91;5028948;28;103305;-63
2022/10/12 10:02:53;;;;;;;21.17;16.57;;;;;;;14.77;100.00;97004.97;5029464;28;105032;-59
2022/10/12 10:05:26;;;;;;;21.37;15.83;;;;;;;14.67;100.00;97003.03;5031357;27;105359;-59
2022/10/12 10:08:18;;;;;;;23.23;16.07;;;;;;;14.76;100.00;96995.31;5009080;28;103690;-59
2022/10/12 10:10:50;;;;;;;19.93;15.27;;;;;;;14.81;100.00;96998.00;5009784;28;102646;-60
2022/10/12 10:13:17;;;;;;;19.93;15.27;;;;;;;14.86;100.00;96998.84;5008834;28;101872;-61
2022/10/12 10:15:50;;;;;;;21.60;16.23;;;;;;;14.87;100.00;96999.66;5008787;28;105426;-59
2022/10/12 10:18:24;;;;;;;19.77;15.07;;;;;;;14.98;100.00;96998.63;5028043;28;105279;-60
2022/10/12 10:20:57;;;;;;;21.90;14.70;;;;;;;15.06;100.00;96998.13;5029033;28;102023;-60
2022/10/12 10:23:25;;;;;;;19.20;14.87;;;;;;;15.14;100.00;97000.25;5030495;28;102304;-60
2022/10/12 10:26:08;;;;;;;19.43;15.07;;;;;;;14.99;100.00;97002.91;5029683;27;102560;-60
2022/10/12 10:28:37;;;;;;;22.67;15.40;;;;;;;14.88;100.00;96999.38;5032053;28;101892;-60
2022/10/12 10:31:06;;;;;;;19.73;14.40;;;;;;;15.18;100.00;97002.16;5029595;27;103219;-60
2022/10/12 10:33:35;;;;;;;22.53;14.03;;;;;;;15.33;100.00;97001.44;5029900;28;101888;-60
2022/10/12 10:36:20;;;;;;;21.87;14.97;;;;;;;15.14;100.00;97006.44;5030055;28;102808;-60
2022/10/12 10:38:55;;;;;;;22.17;14.70;;;;;;;15.40;100.00;97005.47;5027543;28;105906;-60
2022/10/12 10:41:27;;;;;;;19.10;13.47;;;;;;;15.48;100.00;96998.78;5029973;27;101773;-60
2022/10/12 10:43:55;;;;;;;20.10;15.63;;;;;;;15.39;100.00;96995.00;5028203;28;103459;-60
2022/10/12 10:46:33;;;;;;;19.57;15.23;;;;;;;15.43;100.00;96994.19;5029424;28;102664;-60
2022/10/12 10:49:05;;;;;;;20.07;14.83;;;;;;;15.50;100.00;96993.94;5031676;28;102000;-60
2022/10/12 10:51:52;;;;;;;18.83;14.33;;;;;;;15.59;100.00;96998.50;5029571;27;103149;-60
2022/10/12 10:54:27;;;;;;;21.80;14.90;;;;;;;15.71;100.00;96990.22;5029526;27;101755;-60
2022/10/12 10:57:08;;;;;;;20.37;15.27;;;;;;;15.80;100.00;96988.63;5009820;28;102595;-60
2022/10/12 10:59:42;;;;;;;21.03;14.70;;;;;;;15.82;100.00;96989.16;5024299;28;104310;-60
2022/10/12 11:02:23;;;;;;;19.40;13.87;;;;;;;16.10;100.00;96981.34;5041945;27;101861;-60
2022/10/12 11:04:57;;;;;;;21.17;14.23;;;;;;;16.05;100.00;96980.53;5029383;28;102390;-60
2022/10/12 11:07:35;;;;;;;17.00;13.20;;;;;;;15.79;100.00;96977.06;5027808;28;103900;-60
2022/10/12 11:10:08;;;;;;;17.40;13.47;;;;;;;15.98;100.00;96971.97;5029508;28;101920;-60
2022/10/12 11:12:41;;;;;;;15.83;13.00;;;;;;;16.12;100.00;96973.81;5032611;28;102829;-60
2022/10/12 11:15:16;;;;;;;16.33;13.67;;;;;;;16.35;100.00;96969.75;5029387;28;101877;-60
2022/10/12 11:17:52;;;;;;;15.63;13.50;;;;;;;16.47;100.00;96967.63;5028648;27;102824;-60
2022/10/12 11:20:41;;;;;;;16.77;14.20;;;;;;;16.55;100.00;96965.16;5027347;28;104062;-60
2022/10/12 11:23:19;;;;;;;16.53;12.73;;;;;;;16.22;100.00;96964.94;5029554;28;101907;-60
2022/10/12 11:26:04;;;;;;;15.87;13.07;;;;;;;15.64;100.00;96969.03;5029515;28;102361;-60
2022/10/12 11:28:33;;;;;;;16.63;12.43;;;;;;;15.65;100.00;96967.94;5028824;27;101877;-60
2022/10/12 11:31:02;;;;;;;16.13;12.30;;;;;;;15.96;100.00;96971.44;5029123;28;101840;-60
2022/10/12 11:33:37;;;;;;;17.87;13.13;;;;;;;15.79;100.00;96970.91;5027582;28;105543;-60
2022/10/12 11:36:31;;;;;;;15.47;12.67;;;;;;;15.93;100.00;96967.44;5032368;28;102692;-60
2022/10/12 11:39:03;;;;;;;18.50;13.50;;;;;;;15.55;100.00;96961.78;5027393;28;105537;-60